createdAt,value
2022-08-29T00:02:07.497Z,51.65
2022-08-29T00:04:36.069Z,52.33
2022-08-29T00:07:04.377Z,52.25
2022-08-29T00:09:32.421Z,50.08
2022-08-29T00:12:00.395Z,48.50
2022-08-29T00:14:29.751Z,49.80
2022-08-29T00:16:57.874Z,49.75
2022-08-29T00:19:25.897Z,46.25
2022-08-29T00:21:54.280Z,45.95
2022-08-29T00:24:22.228Z,47.13
2022-08-29T00:26:50.270Z,42.97
2022-08-29T00:29:18.263Z,47.33
2022-08-29T00:31:47.783Z,44.53
2022-08-29T00:34:15.891Z,41.88
2022-08-29T00:36:48.944Z,43.13
2022-08-29T00:39:17.360Z,42.60
2022-08-29T00:41:46.996Z,42.42
2022-08-29T00:44:15.018Z,37.40
2022-08-29T00:46:51.002Z,40.20
2022-08-29T00:49:33.380Z,37.35
2022-08-29T00:52:07.370Z,43.50
2022-08-29T00:54:35.969Z,39.07
2022-08-29T00:57:04.519Z,38.42
2022-08-29T00:59:37.578Z,37.20
2022-08-29T01:02:07.808Z,37.97
2022-08-29T01:04:36.004Z,35.83
2022-08-29T01:07:04.286Z,36.08
2022-08-29T01:09:32.982Z,32.47
2022-08-29T01:12:18.355Z,31.77
2022-08-29T01:17:22.217Z,32.35
2022-08-29T01:19:56.341Z,34.08
2022-08-29T01:22:36.649Z,31.45
2022-08-29T01:25:09.547Z,31.48
2022-08-29T01:27:41.180Z,31.08
2022-08-29T01:30:10.615Z,29.30
2022-08-29T01:32:38.580Z,32.03
2022-08-29T01:35:08.622Z,32.08
2022-08-29T01:37:39.410Z,29.52
2022-08-29T01:40:10.330Z,27.75
2022-08-29T01:42:38.367Z,27.02
2022-08-29T01:45:09.789Z,29.25
2022-08-29T01:47:38.877Z,25.20
2022-08-29T01:50:09.650Z,26.83
2022-08-29T01:52:37.699Z,27.23
2022-08-29T01:55:06.570Z,26.35
2022-08-29T01:57:38.088Z,24.77
2022-08-29T02:00:09.055Z,27.08
2022-08-29T02:02:38.342Z,24.75
2022-08-29T02:05:07.540Z,26.25
2022-08-29T02:07:35.512Z,22.38
2022-08-29T02:10:03.916Z,23.17
2022-08-29T02:12:32.893Z,22.38
2022-08-29T02:15:02.340Z,23.35
2022-08-29T02:17:30.328Z,22.98
2022-08-29T02:19:58.380Z,24.83
2022-08-29T02:22:26.751Z,21.40
2022-08-29T02:24:55.385Z,22.58
2022-08-29T02:27:23.334Z,21.00
2022-08-29T02:29:52.598Z,22.90
2022-08-29T02:32:21.935Z,19.17
2022-08-29T02:34:49.884Z,20.42
2022-08-29T02:37:18.326Z,20.77
2022-08-29T02:39:46.284Z,17.17
2022-08-29T02:42:14.258Z,19.25
2022-08-29T02:44:42.166Z,20.33
2022-08-29T02:47:10.460Z,19.65
2022-08-29T02:49:39.847Z,18.35
2022-08-29T02:52:08.560Z,20.25
2022-08-29T02:54:37.127Z,19.67
2022-08-29T02:57:05.680Z,19.35
2022-08-29T02:59:33.646Z,16.90
2022-08-29T03:02:01.789Z,18.13
2022-08-29T03:04:30.029Z,16.00
2022-08-29T03:06:59.355Z,16.92
2022-08-29T03:09:27.365Z,15.45
2022-08-29T03:11:56.516Z,16.23
2022-08-29T03:14:24.650Z,18.10
2022-08-29T03:16:52.631Z,15.25
2022-08-29T03:19:20.602Z,15.85
2022-08-29T03:21:48.583Z,17.17
2022-08-29T03:24:26.424Z,13.82
2022-08-29T03:26:56.734Z,14.68
2022-08-29T03:29:25.544Z,14.45
2022-08-29T03:31:53.741Z,13.88
2022-08-29T03:34:21.738Z,13.15
2022-08-29T03:36:49.701Z,14.45
2022-08-29T03:39:19.418Z,13.40
2022-08-29T03:41:47.505Z,13.60
2022-08-29T03:44:15.920Z,12.55
2022-08-29T03:46:44.103Z,13.07
2022-08-29T03:49:12.338Z,12.82
2022-08-29T03:51:41.238Z,14.25
2022-08-29T03:54:09.626Z,11.25
2022-08-29T03:56:39.710Z,13.20
2022-08-29T03:59:08.759Z,13.43
2022-08-29T04:01:36.821Z,13.15
2022-08-29T04:04:05.194Z,13.65
2022-08-29T04:06:33.818Z,13.38
2022-08-29T04:09:02.605Z,12.15
2022-08-29T04:11:30.586Z,11.65
2022-08-29T04:13:59.923Z,10.25
2022-08-29T04:16:30.380Z,13.40
2022-08-29T04:18:59.710Z,10.98
2022-08-29T04:21:27.701Z,11.52
2022-08-29T04:23:56.009Z,11.20
2022-08-29T04:26:36.534Z,10.30
2022-08-29T04:29:06.915Z,11.57
2022-08-29T04:31:36.408Z,11.90
2022-08-29T04:34:05.205Z,11.68
2022-08-29T04:36:35.070Z,8.48
2022-08-29T04:39:03.126Z,9.73
2022-08-29T04:41:33.043Z,9.75
2022-08-29T04:44:02.126Z,8.60
2022-08-29T04:46:32.405Z,10.65
2022-08-29T04:49:04.020Z,11.90
2022-08-29T04:51:34.209Z,9.23
2022-08-29T04:54:02.482Z,9.10
2022-08-29T04:56:30.591Z,8.15
2022-08-29T04:58:58.558Z,9.15
2022-08-29T05:01:27.339Z,10.35
2022-08-29T05:03:58.014Z,10.75
2022-08-29T05:06:26.265Z,7.82
2022-08-29T05:08:58.771Z,8.20
2022-08-29T05:11:29.636Z,8.02
2022-08-29T05:13:58.425Z,6.95
2022-08-29T05:16:26.585Z,7.43
2022-08-29T05:18:56.797Z,7.63
2022-08-29T05:21:27.148Z,6.97
2022-08-29T05:23:56.455Z,7.35
2022-08-29T05:26:25.349Z,8.18
2022-08-29T05:28:53.398Z,8.20
2022-08-29T05:31:22.301Z,7.97
2022-08-29T05:33:50.740Z,8.30
2022-08-29T05:36:20.246Z,8.10
2022-08-29T05:38:48.416Z,7.38
2022-08-29T05:41:16.578Z,6.80
2022-08-29T05:43:44.566Z,6.95
2022-08-29T05:46:12.922Z,6.45
2022-08-29T05:48:43.014Z,6.35
2022-08-29T05:51:17.339Z,8.23
2022-08-29T05:53:47.425Z,6.35
2022-08-29T05:56:22.837Z,7.60
2022-08-29T05:58:51.113Z,6.43
2022-08-29T06:01:24.273Z,7.65
2022-08-29T06:03:54.524Z,7.55
2022-08-29T06:06:25.737Z,7.53
2022-08-29T06:08:56.404Z,6.05
2022-08-29T06:11:27.458Z,6.82
2022-08-29T06:13:55.929Z,5.93
2022-08-29T06:16:26.119Z,7.20
2022-08-29T06:19:13.848Z,7.22
2022-08-29T06:21:42.302Z,5.50
2022-08-29T06:24:11.687Z,5.53
2022-08-29T06:26:39.699Z,7.15
2022-08-29T06:29:10.227Z,5.00
2022-08-29T06:31:38.834Z,5.35
2022-08-29T06:34:07.970Z,5.53
2022-08-29T06:36:36.881Z,5.85
2022-08-29T06:39:08.106Z,5.65
2022-08-29T06:41:39.329Z,5.28
2022-08-29T06:44:07.687Z,5.88
2022-08-29T06:46:37.804Z,4.90
2022-08-29T06:49:07.936Z,5.78
2022-08-29T06:51:37.266Z,7.10
2022-08-29T06:54:07.326Z,4.57
2022-08-29T06:56:37.422Z,5.20
2022-08-29T06:59:06.314Z,5.05
2022-08-29T07:01:35.029Z,4.65
2022-08-29T07:04:04.284Z,5.40
2022-08-29T07:06:33.235Z,4.05
2022-08-29T07:09:01.497Z,6.78
2022-08-29T07:11:32.365Z,5.13
2022-08-29T07:14:04.678Z,7.95
2022-08-29T07:16:34.322Z,5.22
2022-08-29T07:19:02.961Z,3.78
2022-08-29T07:21:31.821Z,5.07
2022-08-29T07:24:00.295Z,5.40
2022-08-29T07:26:31.257Z,4.95
2022-08-29T07:29:04.168Z,6.40
2022-08-29T07:31:33.494Z,7.00
2022-08-29T07:34:02.783Z,3.97
2022-08-29T07:36:31.752Z,5.13
2022-08-29T07:38:59.757Z,2.08
2022-08-29T07:41:28.626Z,4.97
2022-08-29T07:43:56.797Z,3.05
2022-08-29T07:46:26.998Z,6.80
2022-08-29T07:48:55.331Z,3.35
2022-08-29T07:51:24.852Z,4.82
2022-08-29T07:53:54.169Z,4.72
2022-08-29T07:56:24.843Z,4.32
2022-08-29T07:58:53.315Z,4.18
2022-08-29T08:01:22.809Z,4.45
2022-08-29T08:03:53.439Z,5.65
2022-08-29T08:06:22.648Z,4.50
2022-08-29T08:08:51.467Z,2.95
2022-08-29T08:11:21.685Z,3.08
2022-08-29T08:13:49.939Z,5.30
2022-08-29T08:16:21.517Z,11.30
2022-08-29T08:18:51.861Z,3.83
2022-08-29T08:21:20.685Z,2.55
2022-08-29T08:23:48.752Z,5.32
2022-08-29T08:26:17.377Z,3.78
2022-08-29T08:28:45.916Z,3.67
2022-08-29T08:31:16.014Z,4.95
2022-08-29T08:33:45.295Z,3.03
2022-08-29T08:36:20.226Z,4.47
2022-08-29T08:41:32.149Z,3.25
2022-08-29T08:44:05.767Z,6.38
2022-08-29T08:46:38.250Z,5.05
2022-08-29T08:49:10.985Z,5.47
2022-08-29T08:51:45.218Z,4.00
2022-08-29T08:54:18.468Z,5.03
2022-08-29T08:56:50.234Z,3.60
2022-08-29T08:59:22.226Z,5.13
2022-08-29T09:02:07.459Z,5.15
2022-08-29T09:04:48.147Z,4.70
2022-08-29T09:07:33.119Z,7.63
2022-08-29T09:10:15.489Z,3.08
2022-08-29T09:12:54.389Z,2.78
2022-08-29T09:15:26.898Z,6.10
2022-08-29T09:18:00.706Z,3.80
2022-08-29T09:20:31.148Z,3.58
2022-08-29T09:23:03.167Z,2.97
2022-08-29T09:25:36.060Z,4.78
2022-08-29T09:28:07.055Z,7.38
2022-08-29T09:30:36.687Z,2.97
2022-08-29T09:33:08.922Z,3.42
2022-08-29T09:35:40.809Z,4.90
2022-08-29T09:38:19.450Z,3.65
2022-08-29T09:40:54.342Z,3.33
2022-08-29T09:46:16.321Z,2.97
2022-08-29T09:48:46.872Z,4.25
2022-08-29T09:51:28.316Z,3.45
2022-08-29T09:54:17.875Z,3.80
2022-08-29T09:56:52.791Z,4.45
2022-08-29T10:02:09.153Z,5.13
2022-08-29T10:04:38.437Z,3.55
2022-08-29T10:07:11.510Z,3.67
2022-08-29T10:09:41.013Z,3.58
2022-08-29T10:12:13.850Z,3.55
2022-08-29T10:14:49.920Z,2.72
2022-08-29T10:17:41.543Z,6.53
2022-08-29T10:20:11.651Z,4.60
2022-08-29T10:22:44.931Z,3.95
2022-08-29T10:25:20.848Z,4.85
2022-08-29T10:27:53.827Z,4.15
2022-08-29T10:30:24.295Z,4.18
2022-08-29T10:33:15.186Z,2.58
2022-08-29T10:35:54.210Z,5.30
2022-08-29T10:38:41.087Z,3.95
2022-08-29T10:41:25.225Z,1.95
2022-08-29T10:44:02.967Z,4.10
2022-08-29T10:47:02.291Z,4.10
2022-08-29T10:49:44.451Z,2.97
2022-08-29T10:52:21.067Z,7.75
2022-08-29T10:54:56.217Z,5.65
2022-08-29T10:57:42.264Z,8.10
2022-08-29T11:00:13.629Z,9.65
2022-08-29T11:02:47.408Z,5.22
2022-08-29T11:05:22.738Z,3.40
2022-08-29T11:07:57.194Z,5.88
2022-08-29T11:10:27.973Z,5.82
2022-08-29T11:13:01.145Z,5.82
2022-08-29T11:15:37.398Z,3.65
2022-08-29T11:18:10.176Z,8.23
2022-08-29T11:20:43.209Z,7.38
2022-08-29T11:23:32.387Z,10.00
2022-08-29T11:26:07.565Z,13.10
2022-08-29T11:31:23.179Z,13.80
2022-08-29T11:34:03.500Z,7.90
2022-08-29T11:36:52.952Z,8.52
2022-08-29T11:39:53.476Z,9.98
2022-08-29T11:45:23.802Z,4.95
2022-08-29T11:48:17.429Z,11.77
2022-08-29T11:50:46.169Z,6.55
2022-08-29T11:53:33.641Z,3.17
2022-08-29T11:56:27.836Z,7.90
2022-08-29T11:58:57.831Z,5.45
2022-08-29T12:02:02.674Z,5.97
2022-08-29T12:04:54.959Z,6.82
2022-08-29T12:07:35.295Z,4.93
2022-08-29T12:10:08.630Z,6.72
2022-08-29T12:12:45.615Z,5.00
2022-08-29T12:15:55.814Z,12.80
2022-08-29T12:18:41.990Z,9.73
2022-08-29T12:21:48.508Z,10.43
2022-08-29T12:24:40.315Z,9.05
2022-08-29T12:27:24.523Z,8.10
2022-08-29T12:29:54.509Z,8.20
2022-08-29T12:32:43.066Z,8.07
2022-08-29T12:35:27.661Z,10.88
2022-08-29T12:38:16.011Z,9.27
2022-08-29T12:40:54.133Z,11.82
2022-08-29T12:43:42.558Z,10.60
2022-08-29T12:46:15.813Z,8.32
2022-08-29T12:48:57.636Z,9.07
2022-08-29T12:51:38.749Z,9.50
2022-08-29T12:54:09.494Z,8.35
2022-08-29T12:56:40.634Z,8.93
2022-08-29T12:59:16.265Z,7.53
2022-08-29T13:01:49.207Z,10.38
2022-08-29T13:04:18.954Z,14.25
2022-08-29T13:06:56.476Z,14.40
2022-08-29T13:09:31.271Z,9.63
2022-08-29T13:12:15.302Z,11.98
2022-08-29T13:14:56.288Z,8.77
2022-08-29T13:17:28.351Z,8.50
2022-08-29T13:20:33.729Z,9.13
2022-08-29T13:23:17.233Z,6.70
2022-08-29T13:25:50.133Z,7.72
2022-08-29T13:28:23.527Z,11.25
2022-08-29T13:31:22.455Z,4.63
2022-08-29T13:34:23.644Z,8.25
2022-08-29T13:37:02.254Z,8.95
2022-08-29T13:39:36.090Z,7.25
2022-08-29T13:42:25.963Z,10.88
2022-08-29T13:45:05.628Z,8.45
2022-08-29T13:47:43.526Z,11.90
2022-08-29T13:50:15.195Z,11.00
2022-08-29T13:52:43.187Z,7.20
2022-08-29T13:55:11.223Z,5.10
2022-08-29T13:57:42.476Z,4.95
2022-08-29T14:00:13.579Z,9.90
2022-08-29T14:02:45.146Z,6.25
2022-08-29T14:05:14.583Z,9.07
2022-08-29T14:07:44.077Z,8.50
2022-08-29T14:10:15.235Z,8.40
2022-08-29T14:12:45.327Z,6.32
2022-08-29T14:15:17.894Z,10.90
2022-08-29T14:17:48.292Z,6.22
2022-08-29T14:20:17.860Z,10.68
2022-08-29T14:22:47.037Z,9.77
2022-08-29T14:25:17.078Z,6.00
2022-08-29T14:27:47.439Z,5.47
2022-08-29T14:30:18.115Z,5.72
2022-08-29T14:32:46.502Z,5.68
2022-08-29T14:35:25.888Z,9.15
2022-08-29T14:37:55.358Z,3.95
2022-08-29T14:40:25.605Z,5.75
2022-08-29T14:42:55.613Z,4.13
2022-08-29T14:45:23.590Z,4.70
2022-08-29T14:47:51.748Z,8.32
2022-08-29T14:50:20.085Z,5.05
2022-08-29T14:52:48.206Z,7.35
2022-08-29T14:55:16.819Z,4.05
2022-08-29T14:57:44.932Z,9.48
2022-08-29T15:00:18.782Z,4.20
2022-08-29T15:02:47.938Z,6.35
2022-08-29T15:05:16.143Z,6.57
2022-08-29T15:07:45.128Z,5.18
2022-08-29T15:10:14.892Z,11.20
2022-08-29T15:12:43.059Z,4.32
2022-08-29T15:15:11.906Z,4.68
2022-08-29T15:17:43.540Z,5.45
2022-08-29T15:23:00.699Z,6.90
2022-08-29T15:25:28.705Z,6.68
2022-08-29T15:27:56.693Z,5.47
2022-08-29T15:30:26.528Z,6.78
2022-08-29T15:32:55.929Z,10.93
2022-08-29T15:35:23.963Z,5.05
2022-08-29T15:37:54.294Z,6.68
2022-08-29T15:40:23.190Z,4.78
2022-08-29T15:42:51.348Z,6.07
2022-08-29T15:45:19.471Z,5.65
2022-08-29T15:47:51.117Z,4.07
2022-08-29T15:50:24.326Z,5.82
2022-08-29T15:52:52.850Z,2.45
2022-08-29T15:55:21.262Z,5.28
2022-08-29T15:57:51.824Z,4.80
2022-08-29T16:00:29.529Z,5.97
2022-08-29T16:03:00.611Z,6.50
2022-08-29T16:05:30.507Z,4.05
2022-08-29T16:07:58.523Z,3.15
2022-08-29T16:10:26.719Z,5.28
2022-08-29T16:12:54.747Z,6.00
2022-08-29T16:15:23.070Z,3.08
2022-08-29T16:17:51.313Z,3.67
2022-08-29T16:20:19.451Z,4.15
2022-08-29T16:22:48.873Z,4.28
2022-08-29T16:25:16.977Z,3.05
2022-08-29T16:27:44.974Z,3.40
2022-08-29T16:30:14.205Z,3.72
2022-08-29T16:32:42.238Z,4.95
2022-08-29T16:35:11.468Z,3.25
2022-08-29T16:37:39.571Z,4.38
2022-08-29T16:40:10.544Z,4.15
2022-08-29T16:42:39.476Z,3.08
2022-08-29T16:45:09.788Z,6.03
2022-08-29T16:47:38.484Z,3.33
2022-08-29T16:50:08.380Z,4.22
2022-08-29T16:52:36.383Z,3.67
2022-08-29T16:55:05.547Z,2.97
2022-08-29T16:57:35.335Z,3.05
2022-08-29T17:00:04.809Z,2.42
2022-08-29T17:02:32.972Z,3.90
2022-08-29T17:05:01.136Z,3.75
2022-08-29T17:07:33.821Z,3.78
2022-08-29T17:10:02.379Z,5.40
2022-08-29T17:12:29.811Z,3.53
2022-08-29T17:14:58.075Z,3.15
2022-08-29T17:17:26.146Z,2.85
2022-08-29T17:19:54.189Z,4.40
2022-08-29T17:22:23.122Z,4.38
2022-08-29T17:24:51.121Z,3.58
2022-08-29T17:27:21.440Z,3.88
2022-08-29T17:29:49.926Z,5.70
2022-08-29T17:32:19.506Z,3.45
2022-08-29T17:34:47.896Z,4.63
2022-08-29T17:37:16.388Z,3.55
2022-08-29T17:39:44.535Z,3.22
2022-08-29T17:42:12.892Z,5.00
2022-08-29T17:44:42.394Z,2.97
2022-08-29T17:47:10.983Z,2.88
2022-08-29T17:49:40.364Z,3.85
2022-08-29T17:52:08.464Z,2.28
2022-08-29T17:54:36.799Z,3.13
2022-08-29T17:57:05.298Z,4.07
2022-08-29T17:59:35.637Z,1.90
2022-08-29T18:02:05.122Z,3.67
2022-08-29T18:04:33.277Z,3.63
2022-08-29T18:07:02.895Z,3.60
2022-08-29T18:09:31.082Z,5.13
2022-08-29T18:11:59.250Z,2.00
2022-08-29T18:14:27.939Z,4.28
2022-08-29T18:16:56.466Z,3.53
2022-08-29T18:19:25.201Z,5.97
2022-08-29T18:21:53.810Z,3.53
2022-08-29T18:24:23.461Z,6.65
2022-08-29T18:26:51.520Z,4.38
2022-08-29T18:29:20.709Z,6.75
2022-08-29T18:31:49.066Z,9.25
2022-08-29T18:34:17.553Z,10.60
2022-08-29T18:36:47.206Z,17.38
2022-08-29T18:39:16.417Z,20.70
2022-08-29T18:41:45.784Z,23.70
2022-08-29T18:44:13.946Z,29.80
2022-08-29T18:46:43.486Z,32.97
2022-08-29T18:49:16.644Z,35.13
2022-08-29T18:51:44.700Z,37.95
2022-08-29T18:54:16.303Z,39.00
2022-08-29T18:56:48.289Z,52.42
2022-08-29T18:59:16.266Z,55.28
2022-08-29T19:01:44.525Z,51.17
2022-08-29T19:04:12.609Z,57.17
2022-08-29T19:06:40.580Z,61.35
2022-08-29T19:09:08.673Z,69.18
2022-08-29T19:11:36.634Z,71.05
2022-08-29T19:14:06.042Z,78.53
2022-08-29T19:16:34.365Z,74.60
2022-08-29T19:19:02.358Z,74.45
2022-08-29T19:21:29.382Z,85.82
2022-08-29T19:23:57.376Z,92.75
2022-08-29T19:26:28.797Z,86.05
2022-08-29T19:28:59.614Z,89.35
2022-08-29T19:31:29.527Z,91.22
2022-08-29T19:33:58.229Z,94.28
2022-08-29T19:36:27.053Z,99.32
2022-08-29T19:38:55.107Z,98.30
2022-08-29T19:41:23.384Z,103.10
2022-08-29T19:43:53.758Z,102.68
2022-08-29T19:46:24.370Z,100.68
2022-08-29T19:48:53.779Z,102.68
2022-08-29T19:51:24.950Z,103.50
2022-08-29T19:53:53.667Z,105.72
2022-08-29T19:56:21.716Z,109.80
2022-08-29T19:58:49.794Z,109.47
2022-08-29T20:01:18.354Z,108.25
2022-08-29T20:03:46.741Z,106.10
2022-08-29T20:06:16.210Z,104.63
2022-08-29T20:08:46.650Z,111.45
2022-08-29T20:11:21.014Z,106.40
2022-08-29T20:13:51.041Z,113.78
2022-08-29T20:16:22.777Z,124.55
2022-08-29T20:18:51.816Z,131.05
2022-08-29T20:21:23.522Z,117.75
2022-08-29T20:23:54.729Z,118.78
2022-08-29T20:26:26.489Z,123.53
2022-08-29T20:28:54.904Z,119.68
2022-08-29T20:31:23.104Z,121.60
2022-08-29T20:33:51.533Z,121.10
2022-08-29T20:36:40.429Z,124.35
2022-08-29T20:39:10.337Z,122.28
2022-08-29T20:41:38.628Z,125.35
2022-08-29T20:44:09.794Z,131.05
2022-08-29T20:46:40.673Z,131.07
2022-08-29T20:49:08.959Z,126.18
2022-08-29T20:51:38.846Z,122.07
2022-08-29T20:54:07.383Z,117.10
2022-08-29T20:56:35.349Z,117.07
2022-08-29T20:59:03.292Z,111.45
2022-08-29T21:01:31.347Z,104.38
2022-08-29T21:04:20.955Z,107.80
2022-08-29T21:06:54.278Z,98.07
2022-08-29T21:09:23.014Z,101.47
2022-08-29T21:11:51.636Z,99.50
2022-08-29T21:14:22.322Z,101.25
2022-08-29T21:16:51.012Z,99.30
2022-08-29T21:19:19.469Z,100.40
2022-08-29T21:21:47.465Z,100.13
2022-08-29T21:24:16.827Z,102.60
2022-08-29T21:26:46.359Z,100.00
2022-08-29T21:29:14.398Z,93.60
2022-08-29T21:31:42.485Z,95.18
2022-08-29T21:34:11.421Z,92.07
2022-08-29T21:36:40.463Z,94.32
2022-08-29T21:39:11.045Z,93.05
2022-08-29T21:41:43.610Z,84.00
2022-08-29T21:44:13.673Z,87.93
2022-08-29T21:46:44.395Z,87.72
2022-08-29T21:49:15.297Z,81.05
2022-08-29T21:51:43.749Z,86.10
2022-08-29T21:54:13.847Z,77.68
2022-08-29T21:56:43.931Z,78.13
2022-08-29T21:59:12.594Z,77.22
2022-08-29T22:01:43.689Z,75.57
2022-08-29T22:04:19.454Z,78.05
2022-08-29T22:06:58.340Z,69.75
2022-08-29T22:09:27.935Z,76.78
2022-08-29T22:11:57.620Z,72.32
2022-08-29T22:14:46.835Z,72.95
2022-08-29T22:17:14.671Z,76.68
2022-08-29T22:19:42.811Z,65.30
2022-08-29T22:22:11.327Z,68.78
2022-08-29T22:24:39.551Z,64.60
2022-08-29T22:27:09.347Z,65.35
2022-08-29T22:29:37.458Z,69.18
2022-08-29T22:32:06.028Z,65.53
2022-08-29T22:34:34.464Z,66.05
2022-08-29T22:37:02.435Z,63.17
2022-08-29T22:39:30.406Z,59.72
2022-08-29T22:41:58.372Z,60.30
2022-08-29T22:45:02.694Z,59.60
2022-08-29T22:47:16.567Z,60.28
2022-08-29T22:49:48.621Z,61.78
2022-08-29T22:52:16.750Z,61.10
2022-08-29T22:54:45.181Z,63.50
2022-08-29T22:57:15.817Z,55.47
2022-08-29T22:59:47.526Z,56.03
2022-08-29T23:02:16.306Z,56.22
2022-08-29T23:04:44.663Z,53.10
2022-08-29T23:07:15.058Z,49.45
2022-08-29T23:09:44.282Z,50.42
2022-08-29T23:12:14.135Z,52.42
2022-08-29T23:14:46.391Z,52.33
2022-08-29T23:17:15.411Z,50.78
2022-08-29T23:19:43.721Z,48.33
2022-08-29T23:22:13.719Z,49.58
2022-08-29T23:24:51.546Z,49.80
2022-08-29T23:27:27.158Z,47.55
2022-08-29T23:29:56.788Z,44.03
2022-08-29T23:32:24.873Z,46.80
2022-08-29T23:34:52.822Z,47.97
2022-08-29T23:37:20.921Z,41.30
2022-08-29T23:39:48.890Z,41.92
2022-08-29T23:42:16.889Z,47.72
2022-08-29T23:44:48.645Z,47.65
2022-08-29T23:47:18.395Z,43.08
2022-08-29T23:49:46.578Z,44.20
2022-08-29T23:52:15.670Z,41.85
2022-08-29T23:54:45.527Z,39.70
2022-08-29T23:57:13.491Z,42.30
2022-08-29T23:59:59.042Z,41.67
